Terminal Aerodrome Forecast
Issued by NWS Northern Indiana

Home | Current Version | Previous Version | Text Only | Print | Product List | Glossary Off
Versions: 1 2 3 4 5 6 7 8 9 10 11 12 13 14 15 16

894
FTUS43 KIWX 240529
TAFFWA
TAF
KFWA 240529Z 2406/2506 17005KT P6SM OVC200
     FM241200 18008KT P6SM BKN060
     FM241800 19010G20KT P6SM VCSH OVC040
     FM242200 21007KT P6SM BKN090=

USA.gov is the U.S. government's official web portal to all federal, state and local government web resources and services.